Time;durP1;ratioP1;P1;durP2;ratioP2;P2;SDS_P1;SDS_P2;PMS_P1;PMS_P2;Temp;Humidity;BMP_temperature;BMP_pressure;BME280_temperature;BME280_humidity;BME280_pressure;Samples;Min_cycle;Max_cycle;Signal;HPM_P1;HPM_P2
2021/09/22 00:00:11;;;;;;;6.85;3.00;;;;;;;;;;4897073;29;20052;-78
2021/09/22 00:02:37;;;;;;;6.10;3.00;;;;;;;;;;4898766;29;20043;-78
2021/09/22 00:05:03;;;;;;;5.63;2.70;;;;;;;;;;4898192;29;20031;-79
2021/09/22 00:07:30;;;;;;;5.10;3.10;;;;;;;;;;4898126;29;20038;-78
2021/09/22 00:09:56;;;;;;;8.50;3.65;;;;;;;;;;4896918;29;20032;-78
2021/09/22 00:12:22;;;;;;;6.03;3.22;;;;;;;;;;4896787;29;20096;-78
2021/09/22 00:14:48;;;;;;;5.75;3.30;;;;;;;;;;4898081;29;20075;-79
2021/09/22 00:17:14;;;;;;;6.22;2.90;;;;;;;;;;4879474;29;20041;-79
2021/09/22 00:19:41;;;;;;;6.80;3.38;;;;;;;;;;4879454;29;20033;-78
2021/09/22 00:22:07;;;;;;;6.22;2.58;;;;;;;;;;4878126;29;20032;-78
2021/09/22 00:24:33;;;;;;;6.68;3.05;;;;;;;;;;4879658;29;20434;-78
2021/09/22 00:26:59;;;;;;;6.82;3.05;;;;;;;;;;4882704;29;20033;-79
2021/09/22 00:29:26;;;;;;;5.10;2.83;;;;;;;;;;4883341;29;20040;-78
2021/09/22 00:31:53;;;;;;;7.35;2.67;;;;;;;;;;4881492;29;20029;-78
2021/09/22 00:34:19;;;;;;;8.40;3.30;;;;;;;;;;4882707;29;20033;-79
2021/09/22 00:36:47;;;;;;;4.93;2.50;;;;;;;;;;4882706;29;20112;-78
2021/09/22 00:39:13;;;;;;;10.32;3.58;;;;;;;;;;4881375;29;20029;-78
2021/09/22 00:41:39;;;;;;;5.63;2.53;;;;;;;;;;4881315;29;20033;-78
2021/09/22 00:44:06;;;;;;;7.38;2.90;;;;;;;;;;4881345;29;20478;-78
2021/09/22 00:46:32;;;;;;;6.10;2.85;;;;;;;;;;4882366;29;20041;-79
2021/09/22 00:48:58;;;;;;;5.57;3.00;;;;;;;;;;4882421;29;20444;-79
2021/09/22 00:51:25;;;;;;;9.82;3.40;;;;;;;;;;4882397;29;20029;-79
2021/09/22 00:53:51;;;;;;;5.38;2.38;;;;;;;;;;4882309;29;20061;-78
2021/09/22 00:56:18;;;;;;;5.57;2.75;;;;;;;;;;4880954;29;20025;-79
2021/09/22 00:58:44;;;;;;;11.88;3.80;;;;;;;;;;4882297;29;20112;-79
2021/09/22 01:01:11;;;;;;;4.68;2.80;;;;;;;;;;4882228;29;20471;-78
2021/09/22 01:03:37;;;;;;;6.07;3.17;;;;;;;;;;4882194;29;20084;-78
2021/09/22 01:06:03;;;;;;;5.13;2.92;;;;;;;;;;4882016;29;20041;-79
2021/09/22 01:08:31;;;;;;;7.82;3.67;;;;;;;;;;4882608;29;20033;-79
2021/09/22 01:10:57;;;;;;;5.20;2.75;;;;;;;;;;4882065;29;20029;-78
2021/09/22 01:13:23;;;;;;;5.97;2.95;;;;;;;;;;4880776;29;20497;-78
2021/09/22 01:15:50;;;;;;;5.43;3.20;;;;;;;;;;4888376;29;20048;-78
2021/09/22 01:18:22;;;;;;;6.00;2.97;;;;;;;;;;4900630;29;20055;-79
2021/09/22 01:20:55;;;;;;;7.70;3.15;;;;;;;;;;4899401;29;20406;-79
2021/09/22 01:23:22;;;;;;;6.55;3.22;;;;;;;;;;4899347;29;20390;-79
2021/09/22 01:25:49;;;;;;;5.95;3.33;;;;;;;;;;4900321;29;20037;-77
2021/09/22 01:28:20;;;;;;;6.22;3.63;;;;;;;;;;4899197;29;20491;-79
2021/09/22 01:30:47;;;;;;;8.70;3.90;;;;;;;;;;4899173;29;20032;-77
2021/09/22 01:33:14;;;;;;;6.25;3.53;;;;;;;;;;4900355;29;20478;-79
2021/09/22 01:35:42;;;;;;;6.90;3.38;;;;;;;;;;4898235;29;20036;-77
2021/09/22 01:38:11;;;;;;;5.90;3.35;;;;;;;;;;4899113;29;20486;-78
2021/09/22 01:40:38;;;;;;;6.75;3.15;;;;;;;;;;4899149;29;20033;-78
2021/09/22 01:43:05;;;;;;;7.15;2.85;;;;;;;;;;4900118;29;20111;-77
2021/09/22 01:45:31;;;;;;;7.95;3.35;;;;;;;;;;4898960;29;20044;-77
2021/09/22 01:47:59;;;;;;;7.10;3.55;;;;;;;;;;4898886;29;20116;-79
2021/09/22 01:50:25;;;;;;;4.85;2.88;;;;;;;;;;4899027;29;20036;-78
2021/09/22 01:52:53;;;;;;;6.22;3.20;;;;;;;;;;4900132;29;20025;-78
2021/09/22 01:55:20;;;;;;;7.60;4.10;;;;;;;;;;4898741;29;20029;-78
2021/09/22 01:57:47;;;;;;;6.68;3.80;;;;;;;;;;4899874;29;20032;-76
2021/09/22 02:00:13;;;;;;;8.18;4.18;;;;;;;;;;4899830;29;20035;-78
2021/09/22 02:02:39;;;;;;;8.30;4.43;;;;;;;;;;4898524;29;20119;-78
2021/09/22 02:05:06;;;;;;;9.20;3.70;;;;;;;;;;4900157;29;20374;-78
2021/09/22 02:07:32;;;;;;;7.32;3.60;;;;;;;;;;4898508;29;20093;-78
2021/09/22 02:09:59;;;;;;;8.77;4.22;;;;;;;;;;4899762;29;20024;-77
2021/09/22 02:12:28;;;;;;;6.97;3.78;;;;;;;;;;4899796;29;20061;-78
2021/09/22 02:14:55;;;;;;;6.78;3.97;;;;;;;;;;4898919;29;20033;-79
2021/09/22 02:17:21;;;;;;;7.22;3.75;;;;;;;;;;4901469;29;20059;-77
2021/09/22 02:19:48;;;;;;;8.90;4.40;;;;;;;;;;4901390;29;20058;-78
2021/09/22 02:22:14;;;;;;;7.13;4.28;;;;;;;;;;4901318;29;20025;-79
2021/09/22 02:24:44;;;;;;;7.95;4.47;;;;;;;;;;4918244;29;20028;-79
2021/09/22 02:27:15;;;;;;;7.47;3.90;;;;;;;;;;4901135;29;20047;-78
2021/09/22 02:29:41;;;;;;;8.35;3.88;;;;;;;;;;4901107;29;20500;-79
2021/09/22 02:32:09;;;;;;;8.48;4.03;;;;;;;;;;4918086;29;20039;-79
2021/09/22 02:34:36;;;;;;;9.15;4.75;;;;;;;;;;4901042;29;20028;-80
2021/09/22 02:37:03;;;;;;;17.27;4.32;;;;;;;;;;4918037;29;20036;-80
2021/09/22 02:39:29;;;;;;;7.80;4.18;;;;;;;;;;4901378;29;20024;-79
2021/09/22 02:41:56;;;;;;;7.68;4.30;;;;;;;;;;4917975;29;20607;-79
2021/09/22 02:44:23;;;;;;;8.18;4.35;;;;;;;;;;4918457;29;20099;-79
2021/09/22 02:46:49;;;;;;;8.65;4.18;;;;;;;;;;4918195;29;20044;-78
2021/09/22 02:49:16;;;;;;;8.93;3.70;;;;;;;;;;4900870;29;20020;-80
2021/09/22 02:51:42;;;;;;;8.00;3.92;;;;;;;;;;4917797;29;20036;-79
2021/09/22 02:54:08;;;;;;;10.27;4.78;;;;;;;;;;4918217;29;20473;-78
2021/09/22 02:56:35;;;;;;;9.13;4.60;;;;;;;;;;4900636;29;20039;-79
2021/09/22 02:59:01;;;;;;;11.13;4.75;;;;;;;;;;4917664;29;20083;-79
2021/09/22 03:01:27;;;;;;;7.75;4.50;;;;;;;;;;4918147;29;20366;-79
2021/09/22 03:03:54;;;;;;;9.55;5.15;;;;;;;;;;4917608;29;20028;-78
2021/09/22 03:06:20;;;;;;;11.63;5.13;;;;;;;;;;4900564;29;20040;-79
2021/09/22 03:08:47;;;;;;;10.88;4.95;;;;;;;;;;4900525;29;20028;-79
2021/09/22 03:11:13;;;;;;;10.77;4.47;;;;;;;;;;4917464;29;20032;-78
2021/09/22 03:13:39;;;;;;;10.15;4.93;;;;;;;;;;4900520;29;20028;-78
2021/09/22 03:16:06;;;;;;;10.98;4.80;;;;;;;;;;4897089;29;20525;-78
2021/09/22 03:18:32;;;;;;;11.20;5.32;;;;;;;;;;4897301;29;20036;-77
2021/09/22 03:20:58;;;;;;;9.07;4.40;;;;;;;;;;4897276;29;20367;-77
2021/09/22 03:23:25;;;;;;;8.77;5.05;;;;;;;;;;4898476;29;20024;-77
2021/09/22 03:25:51;;;;;;;9.20;5.00;;;;;;;;;;4897327;29;20089;-77
2021/09/22 03:28:17;;;;;;;10.18;4.82;;;;;;;;;;4898482;29;20033;-78
2021/09/22 03:30:44;;;;;;;11.50;5.68;;;;;;;;;;4897119;29;20037;-79
2021/09/22 03:33:10;;;;;;;12.43;4.57;;;;;;;;;;4897146;29;20478;-79
2021/09/22 03:35:36;;;;;;;10.85;4.97;;;;;;;;;;4897138;29;20032;-77
2021/09/22 03:38:03;;;;;;;9.02;4.78;;;;;;;;;;4897188;29;20033;-77
2021/09/22 03:40:29;;;;;;;8.98;5.18;;;;;;;;;;4897169;29;20028;-78
2021/09/22 03:42:56;;;;;;;10.82;6.22;;;;;;;;;;4897290;29;20088;-78
2021/09/22 03:45:22;;;;;;;12.73;5.03;;;;;;;;;;4897040;29;20056;-78
2021/09/22 03:47:49;;;;;;;10.35;5.55;;;;;;;;;;4897141;29;20032;-80
2021/09/22 03:50:15;;;;;;;10.65;5.18;;;;;;;;;;4898879;29;20459;-80
2021/09/22 03:52:41;;;;;;;9.98;4.90;;;;;;;;;;4898470;29;20490;-78
2021/09/22 03:55:08;;;;;;;10.25;5.15;;;;;;;;;;4897447;29;20035;-79
2021/09/22 03:57:34;;;;;;;9.07;4.78;;;;;;;;;;4898832;29;20482;-78
2021/09/22 04:00:00;;;;;;;10.88;5.30;;;;;;;;;;4899428;29;20053;-80
2021/09/22 04:02:26;;;;;;;10.90;5.43;;;;;;;;;;4902500;29;20509;-78
2021/09/22 04:04:53;;;;;;;10.00;5.55;;;;;;;;;;4900684;29;20021;-78
2021/09/22 04:07:19;;;;;;;10.25;5.13;;;;;;;;;;4900583;29;20044;-79
2021/09/22 04:09:45;;;;;;;14.75;6.97;;;;;;;;;;4902501;29;20024;-79
2021/09/22 04:12:12;;;;;;;9.73;5.90;;;;;;;;;;4901818;29;20037;-78
2021/09/22 04:14:38;;;;;;;10.20;5.20;;;;;;;;;;4900514;29;20044;-80
2021/09/22 04:17:04;;;;;;;9.95;5.35;;;;;;;;;;4919135;29;20052;-78
2021/09/22 04:19:33;;;;;;;13.25;5.97;;;;;;;;;;4903504;29;20042;-77
2021/09/22 04:21:59;;;;;;;10.00;5.90;;;;;;;;;;4903532;29;20036;-80
2021/09/22 04:24:26;;;;;;;10.65;5.55;;;;;;;;;;4920556;29;20040;-79
2021/09/22 04:26:52;;;;;;;10.18;5.60;;;;;;;;;;4920832;29;20474;-80
2021/09/22 04:29:18;;;;;;;10.05;5.88;;;;;;;;;;4920400;29;20111;-79
2021/09/22 04:31:44;;;;;;;11.07;6.47;;;;;;;;;;4920471;29;20032;-79
2021/09/22 04:34:11;;;;;;;13.73;6.30;;;;;;;;;;4920394;29;20024;-80
2021/09/22 04:36:40;;;;;;;10.88;6.20;;;;;;;;;;4920203;29;20136;-80
2021/09/22 04:39:07;;;;;;;11.63;6.97;;;;;;;;;;4903180;29;20028;-80
2021/09/22 04:41:33;;;;;;;12.43;7.15;;;;;;;;;;4903178;29;20024;-79
2021/09/22 04:43:59;;;;;;;13.23;7.05;;;;;;;;;;4903103;29;20035;-78
2021/09/22 04:46:26;;;;;;;11.73;6.50;;;;;;;;;;4903173;29;20040;-80
2021/09/22 04:48:52;;;;;;;9.85;5.68;;;;;;;;;;4920520;29;20036;-80
2021/09/22 04:51:19;;;;;;;11.75;6.43;;;;;;;;;;4920032;29;20111;-81
2021/09/22 04:53:46;;;;;;;11.77;7.15;;;;;;;;;;4920517;29;20365;-80
2021/09/22 04:56:14;;;;;;;11.07;5.97;;;;;;;;;;4902866;29;20115;-81
2021/09/22 04:58:41;;;;;;;14.32;6.85;;;;;;;;;;4920299;29;20032;-80
2021/09/22 05:01:07;;;;;;;10.30;6.32;;;;;;;;;;4920307;29;20379;-81
2021/09/22 05:03:33;;;;;;;13.68;7.32;;;;;;;;;;4919838;29;20116;-80
2021/09/22 05:06:00;;;;;;;10.80;6.47;;;;;;;;;;4902733;29;20064;-80
2021/09/22 05:08:26;;;;;;;10.57;6.15;;;;;;;;;;4902477;29;20035;-78
2021/09/22 05:10:54;;;;;;;11.30;6.82;;;;;;;;;;4900207;29;20025;-79
2021/09/22 05:13:23;;;;;;;12.40;6.60;;;;;;;;;;4918997;29;20055;-79
2021/09/22 05:15:50;;;;;;;10.07;6.10;;;;;;;;;;4898682;29;20184;-80
2021/09/22 05:18:17;;;;;;;13.77;6.78;;;;;;;;;;4900089;29;20044;-78
2021/09/22 05:20:43;;;;;;;10.32;6.30;;;;;;;;;;4900698;29;20025;-79
2021/09/22 05:23:10;;;;;;;11.38;6.45;;;;;;;;;;4899252;29;20044;-80
2021/09/22 05:25:36;;;;;;;13.65;6.45;;;;;;;;;;4900894;29;20525;-77
2021/09/22 05:28:02;;;;;;;11.50;7.03;;;;;;;;;;4899162;29;20028;-78
2021/09/22 05:30:29;;;;;;;13.90;6.05;;;;;;;;;;4899168;29;20183;-81
2021/09/22 05:32:55;;;;;;;9.73;5.60;;;;;;;;;;4900397;29;20032;-79
2021/09/22 05:35:21;;;;;;;10.75;5.82;;;;;;;;;;4899047;29;20068;-77
2021/09/22 05:37:48;;;;;;;11.23;6.72;;;;;;;;;;4898949;29;20057;-79
2021/09/22 05:40:14;;;;;;;15.00;6.30;;;;;;;;;;4898500;29;20040;-81
2021/09/22 05:42:40;;;;;;;10.02;6.18;;;;;;;;;;4897567;29;20359;-79
2021/09/22 05:45:06;;;;;;;8.20;5.43;;;;;;;;;;4898774;29;20036;-79
2021/09/22 05:47:32;;;;;;;10.63;5.82;;;;;;;;;;4886403;29;20100;-77
2021/09/22 05:49:58;;;;;;;9.48;5.72;;;;;;;;;;4881128;29;20101;-80
2021/09/22 05:52:25;;;;;;;11.25;6.22;;;;;;;;;;4881189;29;20040;-81
2021/09/22 05:54:52;;;;;;;9.45;5.57;;;;;;;;;;4881183;29;20022;-80
2021/09/22 05:57:18;;;;;;;11.10;6.13;;;;;;;;;;4881121;29;20467;-81
2021/09/22 05:59:44;;;;;;;11.77;6.15;;;;;;;;;;4893490;29;20029;-78
2021/09/22 06:02:11;;;;;;;10.48;5.43;;;;;;;;;;4898371;29;20039;-77
2021/09/22 06:04:37;;;;;;;13.90;6.40;;;;;;;;;;4900049;29;20068;-80
2021/09/22 06:07:03;;;;;;;9.63;5.65;;;;;;;;;;4899834;29;20119;-79
2021/09/22 06:09:29;;;;;;;11.27;6.10;;;;;;;;;;4898386;29;20496;-79
2021/09/22 06:11:55;;;;;;;11.07;5.90;;;;;;;;;;4898280;29;20123;-78
2021/09/22 06:14:21;;;;;;;10.85;5.72;;;;;;;;;;4899877;29;20036;-78
2021/09/22 06:16:48;;;;;;;13.40;6.00;;;;;;;;;;4897947;29;20067;-78
2021/09/22 06:19:14;;;;;;;10.02;6.00;;;;;;;;;;4898249;29;20032;-79
2021/09/22 06:21:40;;;;;;;18.33;5.70;;;;;;;;;;4899072;29;20039;-80
2021/09/22 06:24:06;;;;;;;10.85;5.05;;;;;;;;;;4899308;29;20036;-78
2021/09/22 06:26:32;;;;;;;8.70;5.10;;;;;;;;;;4899039;29;20085;-78
2021/09/22 06:28:59;;;;;;;8.20;4.80;;;;;;;;;;4898054;29;20025;-78
2021/09/22 06:31:25;;;;;;;12.00;4.38;;;;;;;;;;4898032;29;20032;-79
2021/09/22 06:33:51;;;;;;;7.82;4.43;;;;;;;;;;4897826;29;20028;-80
2021/09/22 06:36:17;;;;;;;6.85;4.10;;;;;;;;;;4897828;29;20038;-78
2021/09/22 06:38:43;;;;;;;9.88;4.55;;;;;;;;;;4899201;29;20064;-80
2021/09/22 06:41:10;;;;;;;9.10;4.50;;;;;;;;;;4897839;29;20095;-78
2021/09/22 06:43:36;;;;;;;8.32;4.22;;;;;;;;;;4898980;29;20088;-80
2021/09/22 06:46:02;;;;;;;9.25;4.25;;;;;;;;;;4897580;29;20033;-77
2021/09/22 06:48:28;;;;;;;10.63;4.80;;;;;;;;;;4898908;29;20103;-78
2021/09/22 06:50:54;;;;;;;8.55;4.13;;;;;;;;;;4897692;29;20029;-78
2021/09/22 06:53:21;;;;;;;8.02;4.53;;;;;;;;;;4897744;29;20035;-78
2021/09/22 06:55:47;;;;;;;7.30;4.45;;;;;;;;;;4897709;29;20410;-79
2021/09/22 06:58:13;;;;;;;9.10;4.80;;;;;;;;;;4897715;29;20056;-78
2021/09/22 07:00:39;;;;;;;8.55;4.50;;;;;;;;;;4897775;29;20473;-79
2021/09/22 07:03:11;;;;;;;9.57;4.50;;;;;;;;;;4897589;29;20111;-78
2021/09/22 07:05:37;;;;;;;8.23;4.45;;;;;;;;;;4899030;29;20040;-78
2021/09/22 07:08:03;;;;;;;8.73;4.93;;;;;;;;;;4897601;29;20047;-80
2021/09/22 07:10:31;;;;;;;8.93;5.43;;;;;;;;;;4897791;29;20097;-79
2021/09/22 07:12:58;;;;;;;9.85;4.70;;;;;;;;;;4897565;29;20068;-78
2021/09/22 07:15:24;;;;;;;10.00;4.75;;;;;;;;;;4897213;29;20096;-80
2021/09/22 07:17:52;;;;;;;8.07;4.50;;;;;;;;;;4897691;29;20080;-78
2021/09/22 07:20:18;;;;;;;7.93;4.50;;;;;;;;;;4897172;29;20111;-79
2021/09/22 07:22:44;;;;;;;10.70;4.90;;;;;;;;;;4897281;29;20124;-80
2021/09/22 07:25:10;;;;;;;7.80;4.38;;;;;;;;;;4897319;29;20119;-80
2021/09/22 07:27:36;;;;;;;9.48;5.15;;;;;;;;;;4897218;29;20417;-79
2021/09/22 07:30:03;;;;;;;12.10;6.28;;;;;;;;;;4897080;29;20474;-80
2021/09/22 07:32:29;;;;;;;11.15;4.78;;;;;;;;;;4897156;29;20035;-78
2021/09/22 07:34:56;;;;;;;9.88;5.28;;;;;;;;;;4897578;29;20028;-78
2021/09/22 07:37:22;;;;;;;9.93;5.40;;;;;;;;;;4898662;29;20025;-77
2021/09/22 07:39:48;;;;;;;13.25;5.47;;;;;;;;;;4897205;29;20042;-78
2021/09/22 07:42:15;;;;;;;9.07;5.40;;;;;;;;;;4898333;29;20040;-77
2021/09/22 07:44:42;;;;;;;10.82;5.40;;;;;;;;;;4897792;29;20033;-78
2021/09/22 07:47:08;;;;;;;8.68;5.03;;;;;;;;;;4898620;29;20037;-78
2021/09/22 07:49:34;;;;;;;10.02;5.53;;;;;;;;;;4898224;29;20025;-79
2021/09/22 07:52:00;;;;;;;9.30;5.00;;;;;;;;;;4896868;29;20029;-78
2021/09/22 07:54:26;;;;;;;8.55;5.15;;;;;;;;;;4898082;29;20605;-78
2021/09/22 07:56:52;;;;;;;9.32;5.68;;;;;;;;;;4896928;29;20478;-79
2021/09/22 07:59:19;;;;;;;7.60;5.22;;;;;;;;;;4896818;29;20397;-78
2021/09/22 08:01:45;;;;;;;8.05;5.35;;;;;;;;;;4898156;29;20033;-79
2021/09/22 08:04:11;;;;;;;10.40;5.72;;;;;;;;;;4896856;29;20474;-78
2021/09/22 08:06:37;;;;;;;7.47;5.10;;;;;;;;;;4896784;29;20123;-77
2021/09/22 08:09:03;;;;;;;7.65;4.75;;;;;;;;;;4897979;29;20033;-79
2021/09/22 08:11:30;;;;;;;7.88;4.60;;;;;;;;;;4897964;29;20043;-78
2021/09/22 08:13:56;;;;;;;8.40;5.07;;;;;;;;;;4897880;29;20097;-79
2021/09/22 08:16:22;;;;;;;7.85;4.95;;;;;;;;;;4910001;29;20052;-79
2021/09/22 08:18:48;;;;;;;8.50;4.38;;;;;;;;;;4916832;29;20032;-78
2021/09/22 08:21:14;;;;;;;7.18;4.75;;;;;;;;;;4916825;29;20107;-78
2021/09/22 08:23:42;;;;;;;7.03;5.03;;;;;;;;;;4899726;29;20066;-78
2021/09/22 08:26:08;;;;;;;8.40;4.70;;;;;;;;;;4899713;29;20047;-78
2021/09/22 08:28:34;;;;;;;7.00;4.43;;;;;;;;;;4899759;29;20028;-78
2021/09/22 08:31:00;;;;;;;9.05;4.88;;;;;;;;;;4917072;29;20630;-78
2021/09/22 08:33:27;;;;;;;8.20;4.88;;;;;;;;;;4916794;29;20051;-77
2021/09/22 08:35:53;;;;;;;8.45;4.88;;;;;;;;;;4916688;29;20028;-79
2021/09/22 08:38:19;;;;;;;9.30;5.75;;;;;;;;;;4916444;29;20035;-77
2021/09/22 08:40:45;;;;;;;10.63;5.22;;;;;;;;;;4899615;29;20028;-78
2021/09/22 08:43:12;;;;;;;8.20;5.57;;;;;;;;;;4899573;29;20524;-77
2021/09/22 08:45:38;;;;;;;7.60;4.72;;;;;;;;;;4918128;29;20028;-77
2021/09/22 08:48:05;;;;;;;8.32;5.30;;;;;;;;;;4902818;29;20127;-78
2021/09/22 08:50:31;;;;;;;8.07;5.07;;;;;;;;;;4902829;29;20076;-76
2021/09/22 08:52:57;;;;;;;9.95;5.45;;;;;;;;;;4902846;29;20501;-79
2021/09/22 08:55:23;;;;;;;8.77;4.40;;;;;;;;;;4920018;29;20095;-78
2021/09/22 08:57:50;;;;;;;8.57;5.38;;;;;;;;;;4902858;29;20031;-79
2021/09/22 09:00:16;;;;;;;6.07;4.57;;;;;;;;;;4919644;29;20028;-77
2021/09/22 09:02:44;;;;;;;6.95;4.72;;;;;;;;;;4902692;29;20507;-78
2021/09/22 09:05:15;;;;;;;6.82;3.95;;;;;;;;;;4902665;29;20028;-76
2021/09/22 09:07:50;;;;;;;5.78;4.15;;;;;;;;;;4902674;29;20050;-77
2021/09/22 09:10:18;;;;;;;8.88;5.13;;;;;;;;;;4902484;29;20066;-78
2021/09/22 09:12:44;;;;;;;7.28;4.45;;;;;;;;;;4902430;29;20394;-78
2021/09/22 09:15:12;;;;;;;8.23;4.28;;;;;;;;;;4902641;29;20056;-77
2021/09/22 09:17:42;;;;;;;6.72;4.65;;;;;;;;;;4902507;29;20095;-79
2021/09/22 09:20:18;;;;;;;6.53;4.00;;;;;;;;;;4919445;29;20124;-79
2021/09/22 09:22:53;;;;;;;5.82;3.95;;;;;;;;;;4902428;29;20082;-79
2021/09/22 09:25:23;;;;;;;9.27;4.45;;;;;;;;;;4902356;29;20032;-78
2021/09/22 09:27:49;;;;;;;7.75;3.67;;;;;;;;;;4919233;29;20068;-77
2021/09/22 09:30:17;;;;;;;5.78;3.53;;;;;;;;;;4902150;29;20032;-77
2021/09/22 09:32:44;;;;;;;10.02;4.00;;;;;;;;;;4919318;29;20024;-77
2021/09/22 09:35:12;;;;;;;7.25;3.60;;;;;;;;;;4902073;29;20039;-77
2021/09/22 09:37:39;;;;;;;8.20;3.80;;;;;;;;;;4918986;29;20503;-77
2021/09/22 09:40:22;;;;;;;6.55;3.47;;;;;;;;;;4918855;29;20026;-78
2021/09/22 09:42:50;;;;;;;5.10;3.33;;;;;;;;;;4919318;29;20055;-79
2021/09/22 09:45:19;;;;;;;4.90;3.42;;;;;;;;;;4902043;29;20597;-77
2021/09/22 09:47:58;;;;;;;7.10;3.50;;;;;;;;;;4918836;29;20120;-77
2021/09/22 09:50:24;;;;;;;5.25;3.20;;;;;;;;;;4918892;29;20039;-79
2021/09/22 09:52:54;;;;;;;6.72;3.08;;;;;;;;;;4918720;29;20040;-77
2021/09/22 09:55:23;;;;;;;3.67;2.58;;;;;;;;;;4918704;29;20032;-78
2021/09/22 09:57:50;;;;;;;4.07;2.50;;;;;;;;;;4900880;29;20401;-79
2021/09/22 10:00:17;;;;;;;4.97;2.00;;;;;;;;;;4918526;29;20286;-78
2021/09/22 10:02:43;;;;;;;4.00;2.38;;;;;;;;;;4901613;29;20062;-79
2021/09/22 10:05:09;;;;;;;2.92;1.83;;;;;;;;;;4901532;29;20035;-79
2021/09/22 10:07:35;;;;;;;3.90;1.98;;;;;;;;;;4901446;29;20044;-79
2021/09/22 10:10:05;;;;;;;7.15;2.15;;;;;;;;;;4901455;29;20386;-80
2021/09/22 10:12:32;;;;;;;4.45;2.22;;;;;;;;;;4901391;29;20028;-79
2021/09/22 10:14:59;;;;;;;4.20;2.33;;;;;;;;;;4901207;29;20110;-78
2021/09/22 10:17:30;;;;;;;6.28;2.30;;;;;;;;;;4901362;29;20036;-80
2021/09/22 10:19:57;;;;;;;3.22;1.90;;;;;;;;;;4918311;29;20537;-78
2021/09/22 10:22:23;;;;;;;5.57;2.20;;;;;;;;;;4901066;29;20033;-80
2021/09/22 10:24:50;;;;;;;4.03;2.00;;;;;;;;;;4901196;29;20028;-77
2021/09/22 10:27:16;;;;;;;3.42;2.08;;;;;;;;;;4901362;29;20040;-79
2021/09/22 10:29:56;;;;;;;5.07;2.28;;;;;;;;;;4918098;29;20039;-78
2021/09/22 10:32:34;;;;;;;4.60;2.05;;;;;;;;;;4918580;29;20032;-77
2021/09/22 10:35:20;;;;;;;3.85;2.20;;;;;;;;;;4900999;29;20040;-77
2021/09/22 10:37:46;;;;;;;6.18;2.10;;;;;;;;;;4900810;29;20024;-79
2021/09/22 10:40:19;;;;;;;4.43;2.35;;;;;;;;;;4900871;29;20043;-77
2021/09/22 10:42:45;;;;;;;4.57;2.40;;;;;;;;;;4900832;29;20024;-77
2021/09/22 10:45:16;;;;;;;3.80;1.85;;;;;;;;;;4900902;29;20059;-77
2021/09/22 10:47:42;;;;;;;4.60;2.42;;;;;;;;;;4900762;29;20489;-77
2021/09/22 10:50:12;;;;;;;3.33;2.20;;;;;;;;;;4900908;29;20080;-79
2021/09/22 10:52:39;;;;;;;4.63;2.22;;;;;;;;;;4900752;29;20032;-77
2021/09/22 10:55:10;;;;;;;3.60;2.20;;;;;;;;;;4900654;29;20029;-79
2021/09/22 10:57:36;;;;;;;4.93;2.65;;;;;;;;;;4900744;29;20032;-77
2021/09/22 11:00:11;;;;;;;3.08;1.95;;;;;;;;;;4900394;29;20031;-77
2021/09/22 11:02:45;;;;;;;6.93;3.17;;;;;;;;;;4900514;29;20035;-77
2021/09/22 11:05:27;;;;;;;4.60;2.13;;;;;;;;;;4900565;29;20032;-78
2021/09/22 11:07:53;;;;;;;3.67;2.20;;;;;;;;;;4900009;29;20104;-76
2021/09/22 11:10:46;;;;;;;4.57;1.90;;;;;;;;;;4900037;29;20367;-77
2021/09/22 11:13:28;;;;;;;4.65;2.30;;;;;;;;;;4900397;29;20374;-78
2021/09/22 11:15:56;;;;;;;3.93;2.10;;;;;;;;;;4900235;29;20048;-77
2021/09/22 11:18:23;;;;;;;5.68;2.65;;;;;;;;;;4900275;29;20031;-77
2021/09/22 11:21:09;;;;;;;5.00;3.40;;;;;;;;;;4900284;29;20059;-77
2021/09/22 11:23:36;;;;;;;6.30;3.63;;;;;;;;;;4900175;29;20028;-77
2021/09/22 11:26:09;;;;;;;4.80;3.60;;;;;;;;;;4900088;29;20024;-79
2021/09/22 11:28:35;;;;;;;4.18;2.60;;;;;;;;;;4900129;29;20035;-76
2021/09/22 11:31:02;;;;;;;3.38;2.15;;;;;;;;;;4917254;29;20021;-77
2021/09/22 11:33:29;;;;;;;5.75;1.88;;;;;;;;;;4900183;29;20036;-77
2021/09/22 11:35:55;;;;;;;3.60;1.83;;;;;;;;;;4900115;29;20078;-76
2021/09/22 11:38:21;;;;;;;4.30;1.92;;;;;;;;;;4900116;29;20128;-77
2021/09/22 11:40:48;;;;;;;3.40;1.52;;;;;;;;;;4917088;29;20028;-78
2021/09/22 11:43:19;;;;;;;2.50;0.98;;;;;;;;;;4900189;29;20033;-77
2021/09/22 11:45:51;;;;;;;1.67;0.60;;;;;;;;;;4900017;29;20517;-76
2021/09/22 11:48:18;;;;;;;1.02;0.57;;;;;;;;;;4899998;29;20047;-78
2021/09/22 11:50:45;;;;;;;1.40;0.70;;;;;;;;;;4917364;29;20541;-78
2021/09/22 11:53:13;;;;;;;2.40;0.88;;;;;;;;;;4899691;29;20024;-75
2021/09/22 11:55:39;;;;;;;1.63;0.70;;;;;;;;;;4916863;29;20430;-77
2021/09/22 11:58:10;;;;;;;1.80;0.80;;;;;;;;;;4899884;29;20028;-78
2021/09/22 12:00:36;;;;;;;1.52;0.68;;;;;;;;;;4917361;29;20032;-75
2021/09/22 12:03:10;;;;;;;2.17;0.80;;;;;;;;;;4899836;29;20025;-77
2021/09/22 12:05:36;;;;;;;2.03;1.00;;;;;;;;;;4900032;29;20103;-77
2021/09/22 12:08:02;;;;;;;1.73;0.70;;;;;;;;;;4916819;29;20032;-77
2021/09/22 12:10:28;;;;;;;3.38;0.88;;;;;;;;;;4899792;29;20032;-76
2021/09/22 12:12:59;;;;;;;1.60;0.55;;;;;;;;;;4916779;29;20032;-76
2021/09/22 12:15:25;;;;;;;1.48;0.70;;;;;;;;;;4896408;29;20052;-78
2021/09/22 12:17:52;;;;;;;1.50;0.75;;;;;;;;;;4896776;29;20040;-78
2021/09/22 12:20:18;;;;;;;3.47;1.05;;;;;;;;;;4897791;29;20084;-78
2021/09/22 12:22:57;;;;;;;2.58;1.00;;;;;;;;;;4900316;29;20128;-76
2021/09/22 12:25:23;;;;;;;3.58;0.98;;;;;;;;;;4900233;29;20437;-78
2021/09/22 12:27:49;;;;;;;2.00;0.77;;;;;;;;;;4900115;29;20044;-79
2021/09/22 12:30:16;;;;;;;2.00;0.90;;;;;;;;;;4900123;29;20052;-76
2021/09/22 12:32:52;;;;;;;2.20;0.80;;;;;;;;;;4901308;29;20067;-77
2021/09/22 12:35:18;;;;;;;2.22;0.75;;;;;;;;;;4900071;29;20044;-77
2021/09/22 12:37:50;;;;;;;1.92;1.08;;;;;;;;;;4900078;29;20135;-79
2021/09/22 12:40:16;;;;;;;3.80;1.45;;;;;;;;;;4899977;29;20537;-77
2021/09/22 12:42:44;;;;;;;1.80;1.00;;;;;;;;;;4899887;29;20052;-76
2021/09/22 12:45:15;;;;;;;2.97;1.30;;;;;;;;;;4901442;29;20059;-75
2021/09/22 12:47:56;;;;;;;3.25;1.00;;;;;;;;;;4899836;29;20110;-77
2021/09/22 12:50:22;;;;;;;3.67;1.42;;;;;;;;;;4899841;29;20036;-78
2021/09/22 12:52:49;;;;;;;2.00;1.13;;;;;;;;;;4901394;29;20450;-78
2021/09/22 12:55:21;;;;;;;4.47;0.98;;;;;;;;;;4900988;29;20029;-76
2021/09/22 12:57:51;;;;;;;3.00;1.10;;;;;;;;;;4899648;29;20028;-77
2021/09/22 13:00:29;;;;;;;3.33;1.02;;;;;;;;;;4899622;29;20036;-77
2021/09/22 13:03:08;;;;;;;4.65;1.40;;;;;;;;;;4899595;29;20067;-77
2021/09/22 13:05:41;;;;;;;4.18;1.20;;;;;;;;;;4900897;29;20025;-77
2021/09/22 13:08:08;;;;;;;4.03;1.73;;;;;;;;;;4899915;29;20123;-76
2021/09/22 13:10:53;;;;;;;3.42;1.35;;;;;;;;;;4901179;29;20080;-76
2021/09/22 13:13:20;;;;;;;3.42;1.30;;;;;;;;;;4899328;29;20566;-77
2021/09/22 13:15:46;;;;;;;2.13;0.88;;;;;;;;;;4899250;29;20075;-78
2021/09/22 13:18:12;;;;;;;2.25;0.98;;;;;;;;;;4899201;29;20041;-78
2021/09/22 13:20:39;;;;;;;2.13;1.13;;;;;;;;;;4899295;29;20470;-80
2021/09/22 13:23:05;;;;;;;2.05;1.00;;;;;;;;;;4899307;29;20032;-79
2021/09/22 13:25:31;;;;;;;5.88;1.55;;;;;;;;;;4899072;29;20020;-76
2021/09/22 13:28:00;;;;;;;2.00;0.90;;;;;;;;;;4899151;29;20040;-80
2021/09/22 13:30:26;;;;;;;2.83;1.08;;;;;;;;;;4899096;29;20060;-79
2021/09/22 13:32:53;;;;;;;2.33;0.90;;;;;;;;;;4897994;29;20099;-77
2021/09/22 13:35:19;;;;;;;2.65;1.15;;;;;;;;;;4899069;29;20056;-77
2021/09/22 13:37:45;;;;;;;3.13;1.50;;;;;;;;;;4900145;29;20065;-78
2021/09/22 13:40:11;;;;;;;3.08;1.00;;;;;;;;;;4900165;29;20060;-78
2021/09/22 13:42:38;;;;;;;2.05;0.70;;;;;;;;;;4898717;29;20032;-77
2021/09/22 13:45:04;;;;;;;2.08;0.68;;;;;;;;;;4899404;29;20104;-75
2021/09/22 13:47:30;;;;;;;2.55;0.73;;;;;;;;;;4899323;29;20070;-77
2021/09/22 13:49:56;;;;;;;1.48;0.70;;;;;;;;;;4898944;29;20035;-77
2021/09/22 13:52:22;;;;;;;1.83;0.80;;;;;;;;;;4900240;29;20146;-77
2021/09/22 13:54:48;;;;;;;1.40;0.70;;;;;;;;;;4898818;29;20036;-77
2021/09/22 13:57:14;;;;;;;1.70;0.60;;;;;;;;;;4900680;29;20112;-78
2021/09/22 13:59:40;;;;;;;1.67;0.80;;;;;;;;;;4898913;29;20035;-75
2021/09/22 14:02:07;;;;;;;1.85;0.73;;;;;;;;;;4898662;29;20029;-77
2021/09/22 14:04:34;;;;;;;1.33;0.70;;;;;;;;;;4898698;29;20061;-77
2021/09/22 14:07:00;;;;;;;1.05;0.57;;;;;;;;;;4898573;29;20136;-77
2021/09/22 14:09:27;;;;;;;1.80;0.52;;;;;;;;;;4898710;29;20474;-77
2021/09/22 14:11:53;;;;;;;1.38;0.57;;;;;;;;;;4899918;29;20028;-76
2021/09/22 14:14:19;;;;;;;2.13;0.70;;;;;;;;;;4899891;29;20032;-78
2021/09/22 14:16:46;;;;;;;2.03;0.70;;;;;;;;;;4914638;29;20059;-77
2021/09/22 14:19:12;;;;;;;1.98;0.80;;;;;;;;;;4901799;29;20047;-78
2021/09/22 14:21:43;;;;;;;1.40;0.80;;;;;;;;;;4901559;29;20106;-76
2021/09/22 14:24:09;;;;;;;2.67;0.98;;;;;;;;;;4901289;29;20034;-78
2021/09/22 14:26:35;;;;;;;1.90;1.00;;;;;;;;;;4901523;29;20028;-77
2021/09/22 14:29:01;;;;;;;2.47;1.08;;;;;;;;;;4901716;29;20043;-78
2021/09/22 14:31:31;;;;;;;13.30;1.35;;;;;;;;;;4918572;29;20016;-79
2021/09/22 14:33:57;;;;;;;2.63;0.77;;;;;;;;;;4901207;29;20496;-79
2021/09/22 14:36:24;;;;;;;2.50;0.90;;;;;;;;;;4918225;29;20092;-78
2021/09/22 14:38:50;;;;;;;1.50;0.57;;;;;;;;;;4918342;29;20028;-78
2021/09/22 14:41:16;;;;;;;1.73;0.70;;;;;;;;;;4918241;29;20031;-77